Terminal Aerodrome Forecast
Issued by NWS

Home | Current Version | Previous Version | Text Only | Print | Product List | Glossary On
Versions: 1 2 3 4 5 6 7 8 9 10 11 12 13 14 15 16 17 18
000
FTUS42 KMLB 281741
TAFSUA
TAF
KSUA 281741Z 2818/2918 22012KT P6SM VCSH SCT020 BKN030
     FM290000 22009KT P6SM SCT025 SCT080 BKN250
     FM290300 23003KT P6SM SCT005 BKN250
     FM291400 22011KT P6SM VCSH SCT010 SCT025=

USA.gov is the U.S. government's official web portal to all federal, state and local government web resources and services.